sensor_id;sensor_type;location;lat;lon;timestamp;P1;durP1;ratioP1;P2;durP2;ratioP2
79526;SDS011;68974;47.754;-3.364;2023-04-23T00:00:31;32.92;;;4.65;;
79526;SDS011;68974;47.754;-3.364;2023-04-23T00:02:57;21.52;;;4.13;;
79526;SDS011;68974;47.754;-3.364;2023-04-23T00:05:26;18.17;;;3.28;;
79526;SDS011;68974;47.754;-3.364;2023-04-23T00:07:52;21.77;;;3.33;;
79526;SDS011;68974;47.754;-3.364;2023-04-23T00:10:18;24.75;;;3.83;;
79526;SDS011;68974;47.754;-3.364;2023-04-23T00:12:43;23.88;;;4.07;;
79526;SDS011;68974;47.754;-3.364;2023-04-23T00:15:10;21.35;;;3.42;;
79526;SDS011;68974;47.754;-3.364;2023-04-23T00:17:36;22.17;;;3.85;;
79526;SDS011;68974;47.754;-3.364;2023-04-23T00:20:01;25.63;;;4.05;;
79526;SDS011;68974;47.754;-3.364;2023-04-23T00:22:27;18.73;;;3.95;;
79526;SDS011;68974;47.754;-3.364;2023-04-23T00:24:52;20.58;;;2.45;;
79526;SDS011;68974;47.754;-3.364;2023-04-23T00:27:18;22.25;;;3.30;;
79526;SDS011;68974;47.754;-3.364;2023-04-23T00:29:45;16.50;;;2.80;;
79526;SDS011;68974;47.754;-3.364;2023-04-23T00:32:10;21.85;;;2.65;;
79526;SDS011;68974;47.754;-3.364;2023-04-23T00:34:36;12.45;;;2.33;;
79526;SDS011;68974;47.754;-3.364;2023-04-23T00:37:01;22.67;;;2.87;;
79526;SDS011;68974;47.754;-3.364;2023-04-23T00:39:30;13.90;;;2.53;;
79526;SDS011;68974;47.754;-3.364;2023-04-23T00:41:56;12.05;;;2.30;;
79526;SDS011;68974;47.754;-3.364;2023-04-23T00:44:23;7.65;;;1.45;;
79526;SDS011;68974;47.754;-3.364;2023-04-23T00:46:48;13.25;;;2.30;;
79526;SDS011;68974;47.754;-3.364;2023-04-23T00:49:14;11.23;;;2.28;;
79526;SDS011;68974;47.754;-3.364;2023-04-23T00:51:40;10.30;;;1.52;;
79526;SDS011;68974;47.754;-3.364;2023-04-23T00:54:05;14.65;;;3.03;;
79526;SDS011;68974;47.754;-3.364;2023-04-23T00:56:31;8.65;;;2.30;;
79526;SDS011;68974;47.754;-3.364;2023-04-23T00:58:57;18.75;;;4.07;;
79526;SDS011;68974;47.754;-3.364;2023-04-23T01:01:23;16.90;;;2.83;;
79526;SDS011;68974;47.754;-3.364;2023-04-23T01:03:50;13.82;;;1.80;;
79526;SDS011;68974;47.754;-3.364;2023-04-23T01:06:16;10.90;;;1.55;;
79526;SDS011;68974;47.754;-3.364;2023-04-23T01:08:42;12.00;;;1.83;;
79526;SDS011;68974;47.754;-3.364;2023-04-23T01:11:09;8.18;;;2.22;;
79526;SDS011;68974;47.754;-3.364;2023-04-23T01:13:40;9.27;;;1.15;;
79526;SDS011;68974;47.754;-3.364;2023-04-23T01:16:06;14.82;;;2.05;;
79526;SDS011;68974;47.754;-3.364;2023-04-23T01:18:32;14.27;;;2.17;;
79526;SDS011;68974;47.754;-3.364;2023-04-23T01:20:58;19.90;;;2.83;;
79526;SDS011;68974;47.754;-3.364;2023-04-23T01:23:23;26.65;;;2.78;;
79526;SDS011;68974;47.754;-3.364;2023-04-23T01:25:51;17.95;;;2.63;;
79526;SDS011;68974;47.754;-3.364;2023-04-23T01:28:16;17.88;;;2.88;;
79526;SDS011;68974;47.754;-3.364;2023-04-23T01:30:43;15.07;;;2.03;;
79526;SDS011;68974;47.754;-3.364;2023-04-23T01:33:09;11.73;;;2.53;;
79526;SDS011;68974;47.754;-3.364;2023-04-23T01:35:35;9.75;;;1.80;;
79526;SDS011;68974;47.754;-3.364;2023-04-23T01:38:01;8.88;;;2.67;;
79526;SDS011;68974;47.754;-3.364;2023-04-23T01:40:28;10.80;;;2.78;;
79526;SDS011;68974;47.754;-3.364;2023-04-23T01:42:53;12.40;;;1.92;;
79526;SDS011;68974;47.754;-3.364;2023-04-23T01:45:20;11.27;;;1.40;;
79526;SDS011;68974;47.754;-3.364;2023-04-23T01:47:46;10.35;;;1.63;;
79526;SDS011;68974;47.754;-3.364;2023-04-23T01:50:11;8.13;;;1.73;;
79526;SDS011;68974;47.754;-3.364;2023-04-23T01:52:37;11.77;;;1.70;;
79526;SDS011;68974;47.754;-3.364;2023-04-23T01:55:03;14.57;;;2.10;;
79526;SDS011;68974;47.754;-3.364;2023-04-23T01:57:29;13.48;;;2.25;;
79526;SDS011;68974;47.754;-3.364;2023-04-23T01:59:57;9.18;;;1.50;;
79526;SDS011;68974;47.754;-3.364;2023-04-23T02:02:32;10.77;;;2.83;;
79526;SDS011;68974;47.754;-3.364;2023-04-23T02:04:58;16.55;;;1.95;;
79526;SDS011;68974;47.754;-3.364;2023-04-23T02:07:28;11.65;;;1.90;;
79526;SDS011;68974;47.754;-3.364;2023-04-23T02:09:53;5.63;;;1.30;;
79526;SDS011;68974;47.754;-3.364;2023-04-23T02:12:19;12.77;;;3.22;;
79526;SDS011;68974;47.754;-3.364;2023-04-23T02:14:44;10.20;;;2.28;;
79526;SDS011;68974;47.754;-3.364;2023-04-23T02:17:09;8.02;;;1.35;;
79526;SDS011;68974;47.754;-3.364;2023-04-23T02:19:36;5.93;;;1.70;;
79526;SDS011;68974;47.754;-3.364;2023-04-23T02:22:01;11.07;;;1.35;;
79526;SDS011;68974;47.754;-3.364;2023-04-23T02:24:27;9.55;;;1.23;;
79526;SDS011;68974;47.754;-3.364;2023-04-23T02:26:52;6.93;;;1.67;;
79526;SDS011;68974;47.754;-3.364;2023-04-23T02:29:18;9.45;;;1.38;;
79526;SDS011;68974;47.754;-3.364;2023-04-23T02:31:45;8.23;;;1.55;;
79526;SDS011;68974;47.754;-3.364;2023-04-23T02:34:11;9.45;;;3.28;;
79526;SDS011;68974;47.754;-3.364;2023-04-23T02:36:36;10.38;;;1.70;;
79526;SDS011;68974;47.754;-3.364;2023-04-23T02:39:02;8.98;;;1.60;;
79526;SDS011;68974;47.754;-3.364;2023-04-23T02:41:27;8.98;;;1.63;;
79526;SDS011;68974;47.754;-3.364;2023-04-23T02:43:53;8.27;;;1.60;;
79526;SDS011;68974;47.754;-3.364;2023-04-23T02:46:18;12.60;;;2.37;;
79526;SDS011;68974;47.754;-3.364;2023-04-23T02:48:43;6.55;;;1.50;;
79526;SDS011;68974;47.754;-3.364;2023-04-23T02:51:10;15.13;;;2.63;;
79526;SDS011;68974;47.754;-3.364;2023-04-23T02:53:37;11.20;;;2.70;;
79526;SDS011;68974;47.754;-3.364;2023-04-23T02:56:02;10.45;;;2.45;;
79526;SDS011;68974;47.754;-3.364;2023-04-23T02:58:28;9.70;;;1.27;;
79526;SDS011;68974;47.754;-3.364;2023-04-23T03:00:54;6.72;;;1.60;;
79526;SDS011;68974;47.754;-3.364;2023-04-23T03:03:20;6.90;;;1.27;;
79526;SDS011;68974;47.754;-3.364;2023-04-23T03:05:46;10.52;;;2.45;;
79526;SDS011;68974;47.754;-3.364;2023-04-23T03:08:11;8.93;;;1.85;;
79526;SDS011;68974;47.754;-3.364;2023-04-23T03:10:36;10.13;;;1.30;;
79526;SDS011;68974;47.754;-3.364;2023-04-23T03:13:02;5.03;;;1.48;;
79526;SDS011;68974;47.754;-3.364;2023-04-23T03:15:27;7.95;;;1.20;;
79526;SDS011;68974;47.754;-3.364;2023-04-23T03:17:53;7.25;;;1.60;;
79526;SDS011;68974;47.754;-3.364;2023-04-23T03:20:18;16.25;;;3.35;;
79526;SDS011;68974;47.754;-3.364;2023-04-23T03:22:44;8.35;;;1.33;;
79526;SDS011;68974;47.754;-3.364;2023-04-23T03:25:10;12.70;;;1.60;;
79526;SDS011;68974;47.754;-3.364;2023-04-23T03:27:37;8.02;;;1.80;;
79526;SDS011;68974;47.754;-3.364;2023-04-23T03:30:04;12.98;;;1.90;;
79526;SDS011;68974;47.754;-3.364;2023-04-23T03:32:32;10.88;;;2.85;;
79526;SDS011;68974;47.754;-3.364;2023-04-23T03:34:58;15.15;;;1.92;;
79526;SDS011;68974;47.754;-3.364;2023-04-23T03:37:23;13.45;;;1.73;;
79526;SDS011;68974;47.754;-3.364;2023-04-23T03:39:49;10.43;;;2.05;;
79526;SDS011;68974;47.754;-3.364;2023-04-23T03:42:15;12.05;;;2.20;;
79526;SDS011;68974;47.754;-3.364;2023-04-23T03:44:40;10.95;;;2.05;;
79526;SDS011;68974;47.754;-3.364;2023-04-23T03:47:06;16.05;;;2.33;;
79526;SDS011;68974;47.754;-3.364;2023-04-23T03:49:31;18.73;;;2.85;;
79526;SDS011;68974;47.754;-3.364;2023-04-23T03:51:57;22.10;;;4.35;;
79526;SDS011;68974;47.754;-3.364;2023-04-23T03:54:22;9.33;;;2.47;;
79526;SDS011;68974;47.754;-3.364;2023-04-23T03:56:49;13.75;;;2.63;;
79526;SDS011;68974;47.754;-3.364;2023-04-23T03:59:15;9.02;;;2.03;;
79526;SDS011;68974;47.754;-3.364;2023-04-23T04:01:41;15.88;;;2.75;;
79526;SDS011;68974;47.754;-3.364;2023-04-23T04:04:07;13.18;;;1.98;;
79526;SDS011;68974;47.754;-3.364;2023-04-23T04:06:32;11.07;;;2.40;;
79526;SDS011;68974;47.754;-3.364;2023-04-23T04:08:58;4.85;;;1.75;;
79526;SDS011;68974;47.754;-3.364;2023-04-23T04:11:23;4.18;;;1.60;;
79526;SDS011;68974;47.754;-3.364;2023-04-23T04:13:49;2.63;;;0.60;;
79526;SDS011;68974;47.754;-3.364;2023-04-23T04:16:14;0.60;;;0.38;;
79526;SDS011;68974;47.754;-3.364;2023-04-23T04:18:39;4.40;;;0.60;;
79526;SDS011;68974;47.754;-3.364;2023-04-23T04:21:05;1.35;;;0.40;;
79526;SDS011;68974;47.754;-3.364;2023-04-23T04:23:31;2.58;;;0.40;;
79526;SDS011;68974;47.754;-3.364;2023-04-23T04:25:57;1.95;;;0.50;;
79526;SDS011;68974;47.754;-3.364;2023-04-23T04:28:23;3.22;;;0.60;;
79526;SDS011;68974;47.754;-3.364;2023-04-23T04:30:49;1.00;;;0.50;;
79526;SDS011;68974;47.754;-3.364;2023-04-23T04:33:18;3.42;;;0.60;;
79526;SDS011;68974;47.754;-3.364;2023-04-23T04:35:44;0.73;;;0.40;;
79526;SDS011;68974;47.754;-3.364;2023-04-23T04:38:10;2.08;;;0.55;;
79526;SDS011;68974;47.754;-3.364;2023-04-23T04:40:36;0.60;;;0.40;;
79526;SDS011;68974;47.754;-3.364;2023-04-23T04:43:02;1.00;;;0.35;;
79526;SDS011;68974;47.754;-3.364;2023-04-23T04:45:29;1.77;;;0.63;;
79526;SDS011;68974;47.754;-3.364;2023-04-23T04:47:54;1.55;;;0.40;;
79526;SDS011;68974;47.754;-3.364;2023-04-23T04:50:20;2.03;;;0.50;;
79526;SDS011;68974;47.754;-3.364;2023-04-23T04:52:46;1.30;;;0.43;;
79526;SDS011;68974;47.754;-3.364;2023-04-23T04:55:11;1.00;;;0.60;;
79526;SDS011;68974;47.754;-3.364;2023-04-23T04:57:37;2.83;;;0.70;;
79526;SDS011;68974;47.754;-3.364;2023-04-23T05:00:17;1.88;;;0.40;;
79526;SDS011;68974;47.754;-3.364;2023-04-23T05:02:50;3.17;;;1.17;;
79526;SDS011;68974;47.754;-3.364;2023-04-23T05:05:16;1.70;;;0.80;;
79526;SDS011;68974;47.754;-3.364;2023-04-23T05:07:41;3.65;;;1.00;;
79526;SDS011;68974;47.754;-3.364;2023-04-23T05:10:07;2.00;;;0.95;;
79526;SDS011;68974;47.754;-3.364;2023-04-23T05:12:33;1.77;;;0.60;;
79526;SDS011;68974;47.754;-3.364;2023-04-23T05:14:58;3.17;;;0.85;;
79526;SDS011;68974;47.754;-3.364;2023-04-23T05:17:24;3.63;;;2.35;;
79526;SDS011;68974;47.754;-3.364;2023-04-23T05:19:49;2.90;;;0.63;;
79526;SDS011;68974;47.754;-3.364;2023-04-23T05:22:15;1.40;;;0.65;;
79526;SDS011;68974;47.754;-3.364;2023-04-23T05:24:43;3.13;;;0.57;;
79526;SDS011;68974;47.754;-3.364;2023-04-23T05:27:10;1.40;;;0.40;;
79526;SDS011;68974;47.754;-3.364;2023-04-23T05:29:35;1.48;;;0.50;;
79526;SDS011;68974;47.754;-3.364;2023-04-23T05:32:01;1.65;;;0.50;;
79526;SDS011;68974;47.754;-3.364;2023-04-23T05:34:26;2.10;;;0.40;;
79526;SDS011;68974;47.754;-3.364;2023-04-23T05:36:52;2.50;;;0.47;;
79526;SDS011;68974;47.754;-3.364;2023-04-23T05:39:17;2.37;;;0.47;;
79526;SDS011;68974;47.754;-3.364;2023-04-23T05:41:42;2.37;;;0.40;;
79526;SDS011;68974;47.754;-3.364;2023-04-23T05:44:08;0.82;;;0.52;;
79526;SDS011;68974;47.754;-3.364;2023-04-23T05:46:33;1.57;;;0.50;;
79526;SDS011;68974;47.754;-3.364;2023-04-23T05:48:59;3.45;;;1.00;;
79526;SDS011;68974;47.754;-3.364;2023-04-23T05:51:24;2.30;;;0.57;;
79526;SDS011;68974;47.754;-3.364;2023-04-23T05:53:51;0.98;;;0.50;;
79526;SDS011;68974;47.754;-3.364;2023-04-23T05:56:16;0.45;;;0.32;;
79526;SDS011;68974;47.754;-3.364;2023-04-23T05:58:42;1.80;;;0.30;;
79526;SDS011;68974;47.754;-3.364;2023-04-23T06:01:07;1.40;;;0.35;;
79526;SDS011;68974;47.754;-3.364;2023-04-23T06:03:33;1.17;;;0.30;;
79526;SDS011;68974;47.754;-3.364;2023-04-23T06:06:00;2.90;;;0.50;;
79526;SDS011;68974;47.754;-3.364;2023-04-23T06:08:25;3.60;;;0.50;;
79526;SDS011;68974;47.754;-3.364;2023-04-23T06:10:50;1.30;;;0.30;;
79526;SDS011;68974;47.754;-3.364;2023-04-23T06:13:16;4.85;;;2.55;;
79526;SDS011;68974;47.754;-3.364;2023-04-23T06:15:41;2.67;;;0.57;;
79526;SDS011;68974;47.754;-3.364;2023-04-23T06:18:07;2.33;;;1.73;;
79526;SDS011;68974;47.754;-3.364;2023-04-23T06:20:34;4.50;;;1.50;;
79526;SDS011;68974;47.754;-3.364;2023-04-23T06:22:59;1.38;;;0.80;;
79526;SDS011;68974;47.754;-3.364;2023-04-23T06:25:26;0.90;;;0.50;;
79526;SDS011;68974;47.754;-3.364;2023-04-23T06:27:52;1.38;;;0.50;;
79526;SDS011;68974;47.754;-3.364;2023-04-23T06:30:17;1.75;;;0.40;;
79526;SDS011;68974;47.754;-3.364;2023-04-23T06:32:43;1.55;;;0.40;;
79526;SDS011;68974;47.754;-3.364;2023-04-23T06:35:08;0.50;;;0.50;;
79526;SDS011;68974;47.754;-3.364;2023-04-23T06:37:34;0.65;;;0.50;;
79526;SDS011;68974;47.754;-3.364;2023-04-23T06:39:59;2.40;;;0.50;;
79526;SDS011;68974;47.754;-3.364;2023-04-23T06:42:25;2.05;;;0.57;;
79526;SDS011;68974;47.754;-3.364;2023-04-23T06:44:50;3.47;;;0.82;;
79526;SDS011;68974;47.754;-3.364;2023-04-23T06:47:16;0.95;;;0.50;;
79526;SDS011;68974;47.754;-3.364;2023-04-23T06:49:41;1.58;;;0.60;;
79526;SDS011;68974;47.754;-3.364;2023-04-23T06:52:06;4.13;;;0.90;;
79526;SDS011;68974;47.754;-3.364;2023-04-23T06:54:32;4.70;;;0.93;;
79526;SDS011;68974;47.754;-3.364;2023-04-23T06:56:57;6.95;;;0.90;;
79526;SDS011;68974;47.754;-3.364;2023-04-23T06:59:23;5.30;;;1.50;;
79526;SDS011;68974;47.754;-3.364;2023-04-23T07:01:48;7.75;;;1.20;;
79526;SDS011;68974;47.754;-3.364;2023-04-23T07:04:13;5.93;;;1.38;;
79526;SDS011;68974;47.754;-3.364;2023-04-23T07:06:39;7.78;;;1.35;;
79526;SDS011;68974;47.754;-3.364;2023-04-23T07:09:05;6.78;;;1.50;;
79526;SDS011;68974;47.754;-3.364;2023-04-23T07:11:31;4.50;;;1.30;;
79526;SDS011;68974;47.754;-3.364;2023-04-23T07:16:24;2.28;;;0.90;;
79526;SDS011;68974;47.754;-3.364;2023-04-23T07:18:49;4.63;;;1.00;;
79526;SDS011;68974;47.754;-3.364;2023-04-23T07:21:15;7.35;;;1.05;;
79526;SDS011;68974;47.754;-3.364;2023-04-23T07:23:40;5.88;;;1.08;;
79526;SDS011;68974;47.754;-3.364;2023-04-23T07:26:06;9.43;;;1.35;;
79526;SDS011;68974;47.754;-3.364;2023-04-23T07:28:31;6.90;;;1.98;;
79526;SDS011;68974;47.754;-3.364;2023-04-23T07:30:57;2.80;;;1.40;;
79526;SDS011;68974;47.754;-3.364;2023-04-23T07:33:23;5.72;;;1.67;;
79526;SDS011;68974;47.754;-3.364;2023-04-23T07:35:49;3.97;;;1.60;;
79526;SDS011;68974;47.754;-3.364;2023-04-23T07:38:14;7.38;;;2.00;;
79526;SDS011;68974;47.754;-3.364;2023-04-23T07:40:40;8.73;;;3.08;;
79526;SDS011;68974;47.754;-3.364;2023-04-23T07:43:05;11.02;;;3.33;;
79526;SDS011;68974;47.754;-3.364;2023-04-23T07:45:31;11.10;;;3.15;;
79526;SDS011;68974;47.754;-3.364;2023-04-23T07:47:56;13.63;;;3.35;;
79526;SDS011;68974;47.754;-3.364;2023-04-23T07:50:22;13.15;;;3.42;;
79526;SDS011;68974;47.754;-3.364;2023-04-23T07:52:48;11.40;;;2.20;;
79526;SDS011;68974;47.754;-3.364;2023-04-23T07:55:13;16.05;;;2.70;;
79526;SDS011;68974;47.754;-3.364;2023-04-23T07:57:39;13.45;;;2.95;;
79526;SDS011;68974;47.754;-3.364;2023-04-23T08:00:04;9.18;;;2.10;;
79526;SDS011;68974;47.754;-3.364;2023-04-23T08:02:33;12.45;;;1.80;;
79526;SDS011;68974;47.754;-3.364;2023-04-23T08:04:59;9.98;;;2.25;;
79526;SDS011;68974;47.754;-3.364;2023-04-23T08:07:25;17.15;;;2.58;;
79526;SDS011;68974;47.754;-3.364;2023-04-23T08:09:50;13.27;;;2.88;;
79526;SDS011;68974;47.754;-3.364;2023-04-23T08:12:17;6.15;;;1.98;;
79526;SDS011;68974;47.754;-3.364;2023-04-23T08:14:43;14.00;;;3.80;;
79526;SDS011;68974;47.754;-3.364;2023-04-23T08:17:11;9.70;;;2.88;;
79526;SDS011;68974;47.754;-3.364;2023-04-23T08:19:36;8.77;;;1.60;;
79526;SDS011;68974;47.754;-3.364;2023-04-23T08:22:02;8.10;;;2.13;;
79526;SDS011;68974;47.754;-3.364;2023-04-23T08:24:27;7.85;;;1.80;;
79526;SDS011;68974;47.754;-3.364;2023-04-23T08:26:53;11.60;;;1.70;;
79526;SDS011;68974;47.754;-3.364;2023-04-23T08:29:19;14.02;;;2.20;;
79526;SDS011;68974;47.754;-3.364;2023-04-23T08:31:45;9.68;;;2.17;;
79526;SDS011;68974;47.754;-3.364;2023-04-23T08:34:10;12.98;;;2.05;;
79526;SDS011;68974;47.754;-3.364;2023-04-23T08:36:36;9.50;;;1.75;;
79526;SDS011;68974;47.754;-3.364;2023-04-23T08:39:01;4.43;;;1.15;;
79526;SDS011;68974;47.754;-3.364;2023-04-23T08:41:30;7.13;;;1.48;;
79526;SDS011;68974;47.754;-3.364;2023-04-23T08:44:11;7.47;;;1.20;;
79526;SDS011;68974;47.754;-3.364;2023-04-23T08:46:41;6.22;;;1.23;;
79526;SDS011;68974;47.754;-3.364;2023-04-23T08:49:10;8.73;;;1.10;;
79526;SDS011;68974;47.754;-3.364;2023-04-23T08:51:38;8.18;;;1.45;;
79526;SDS011;68974;47.754;-3.364;2023-04-23T08:54:09;7.32;;;1.33;;
79526;SDS011;68974;47.754;-3.364;2023-04-23T08:56:39;7.30;;;1.45;;
79526;SDS011;68974;47.754;-3.364;2023-04-23T08:59:06;4.35;;;1.20;;
79526;SDS011;68974;47.754;-3.364;2023-04-23T09:01:32;7.68;;;1.60;;
79526;SDS011;68974;47.754;-3.364;2023-04-23T09:03:58;5.10;;;1.30;;
79526;SDS011;68974;47.754;-3.364;2023-04-23T09:06:24;6.85;;;1.63;;
79526;SDS011;68974;47.754;-3.364;2023-04-23T09:08:50;5.55;;;1.17;;
79526;SDS011;68974;47.754;-3.364;2023-04-23T09:11:17;2.25;;;0.80;;
79526;SDS011;68974;47.754;-3.364;2023-04-23T09:13:43;4.63;;;1.67;;
79526;SDS011;68974;47.754;-3.364;2023-04-23T09:16:09;3.90;;;1.20;;
79526;SDS011;68974;47.754;-3.364;2023-04-23T09:18:34;5.68;;;1.42;;
79526;SDS011;68974;47.754;-3.364;2023-04-23T09:21:00;5.07;;;1.42;;
79526;SDS011;68974;47.754;-3.364;2023-04-23T09:23:28;2.95;;;0.98;;
79526;SDS011;68974;47.754;-3.364;2023-04-23T09:25:55;6.28;;;1.40;;
79526;SDS011;68974;47.754;-3.364;2023-04-23T09:28:21;3.13;;;0.98;;
79526;SDS011;68974;47.754;-3.364;2023-04-23T09:30:59;9.38;;;3.10;;
79526;SDS011;68974;47.754;-3.364;2023-04-23T09:33:24;3.67;;;1.30;;
79526;SDS011;68974;47.754;-3.364;2023-04-23T09:35:52;3.90;;;1.20;;
79526;SDS011;68974;47.754;-3.364;2023-04-23T09:38:18;5.72;;;1.10;;
79526;SDS011;68974;47.754;-3.364;2023-04-23T09:40:44;5.22;;;1.02;;
79526;SDS011;68974;47.754;-3.364;2023-04-23T09:43:09;7.22;;;1.30;;
79526;SDS011;68974;47.754;-3.364;2023-04-23T09:45:35;6.30;;;1.08;;
79526;SDS011;68974;47.754;-3.364;2023-04-23T09:48:01;5.30;;;1.20;;
79526;SDS011;68974;47.754;-3.364;2023-04-23T09:52:59;3.08;;;1.00;;
79526;SDS011;68974;47.754;-3.364;2023-04-23T09:55:32;4.93;;;1.10;;
79526;SDS011;68974;47.754;-3.364;2023-04-23T09:58:03;4.68;;;1.35;;
79526;SDS011;68974;47.754;-3.364;2023-04-23T10:00:33;2.90;;;0.90;;
79526;SDS011;68974;47.754;-3.364;2023-04-23T10:03:00;2.67;;;0.70;;
79526;SDS011;68974;47.754;-3.364;2023-04-23T10:05:26;3.00;;;0.70;;
79526;SDS011;68974;47.754;-3.364;2023-04-23T10:07:52;3.72;;;0.70;;
79526;SDS011;68974;47.754;-3.364;2023-04-23T10:10:19;3.97;;;1.30;;
79526;SDS011;68974;47.754;-3.364;2023-04-23T10:12:45;3.78;;;0.70;;
79526;SDS011;68974;47.754;-3.364;2023-04-23T10:15:11;2.58;;;0.90;;
79526;SDS011;68974;47.754;-3.364;2023-04-23T10:17:38;3.47;;;0.80;;
79526;SDS011;68974;47.754;-3.364;2023-04-23T10:20:08;3.00;;;1.02;;
79526;SDS011;68974;47.754;-3.364;2023-04-23T10:22:34;2.00;;;0.80;;
79526;SDS011;68974;47.754;-3.364;2023-04-23T10:25:03;3.50;;;1.10;;
79526;SDS011;68974;47.754;-3.364;2023-04-23T10:27:33;4.13;;;1.00;;
79526;SDS011;68974;47.754;-3.364;2023-04-23T10:30:03;2.75;;;0.85;;
79526;SDS011;68974;47.754;-3.364;2023-04-23T10:32:30;1.92;;;1.25;;
79526;SDS011;68974;47.754;-3.364;2023-04-23T10:34:57;2.53;;;0.80;;
79526;SDS011;68974;47.754;-3.364;2023-04-23T10:37:23;1.58;;;0.60;;
79526;SDS011;68974;47.754;-3.364;2023-04-23T10:39:52;2.00;;;0.88;;
79526;SDS011;68974;47.754;-3.364;2023-04-23T10:42:22;2.40;;;0.60;;
79526;SDS011;68974;47.754;-3.364;2023-04-23T10:44:47;2.78;;;1.08;;
79526;SDS011;68974;47.754;-3.364;2023-04-23T10:47:13;3.58;;;2.58;;
79526;SDS011;68974;47.754;-3.364;2023-04-23T10:49:40;2.92;;;1.80;;
79526;SDS011;68974;47.754;-3.364;2023-04-23T10:52:07;3.47;;;1.75;;
79526;SDS011;68974;47.754;-3.364;2023-04-23T10:54:34;2.50;;;1.02;;
79526;SDS011;68974;47.754;-3.364;2023-04-23T10:57:01;2.40;;;1.65;;
79526;SDS011;68974;47.754;-3.364;2023-04-23T10:59:31;2.35;;;1.50;;
79526;SDS011;68974;47.754;-3.364;2023-04-23T11:01:58;1.63;;;1.17;;
79526;SDS011;68974;47.754;-3.364;2023-04-23T11:04:31;3.00;;;1.30;;
79526;SDS011;68974;47.754;-3.364;2023-04-23T11:07:07;3.97;;;0.85;;
79526;SDS011;68974;47.754;-3.364;2023-04-23T11:09:41;1.35;;;0.82;;
79526;SDS011;68974;47.754;-3.364;2023-04-23T11:12:09;2.88;;;1.10;;
79526;SDS011;68974;47.754;-3.364;2023-04-23T11:14:55;2.67;;;0.77;;
79526;SDS011;68974;47.754;-3.364;2023-04-23T11:17:22;4.35;;;1.10;;
79526;SDS011;68974;47.754;-3.364;2023-04-23T11:22:34;2.75;;;1.25;;
79526;SDS011;68974;47.754;-3.364;2023-04-23T11:25:01;5.05;;;1.23;;
79526;SDS011;68974;47.754;-3.364;2023-04-23T11:27:26;1.88;;;0.98;;
79526;SDS011;68974;47.754;-3.364;2023-04-23T11:29:54;2.83;;;1.05;;
79526;SDS011;68974;47.754;-3.364;2023-04-23T11:32:19;2.35;;;0.82;;
79526;SDS011;68974;47.754;-3.364;2023-04-23T11:34:46;2.47;;;2.05;;
79526;SDS011;68974;47.754;-3.364;2023-04-23T11:37:21;2.40;;;1.30;;
79526;SDS011;68974;47.754;-3.364;2023-04-23T11:39:46;2.03;;;1.10;;
79526;SDS011;68974;47.754;-3.364;2023-04-23T11:42:13;2.90;;;1.40;;
79526;SDS011;68974;47.754;-3.364;2023-04-23T11:44:40;5.45;;;2.00;;
79526;SDS011;68974;47.754;-3.364;2023-04-23T11:47:08;3.22;;;1.63;;
79526;SDS011;68974;47.754;-3.364;2023-04-23T11:49:41;6.15;;;1.20;;
79526;SDS011;68974;47.754;-3.364;2023-04-23T11:52:08;4.13;;;1.63;;
79526;SDS011;68974;47.754;-3.364;2023-04-23T11:57:00;3.30;;;1.42;;
79526;SDS011;68974;47.754;-3.364;2023-04-23T11:59:28;5.07;;;1.75;;
79526;SDS011;68974;47.754;-3.364;2023-04-23T12:01:54;2.75;;;2.03;;
79526;SDS011;68974;47.754;-3.364;2023-04-23T12:04:24;3.85;;;1.73;;
79526;SDS011;68974;47.754;-3.364;2023-04-23T12:06:53;2.70;;;1.67;;
79526;SDS011;68974;47.754;-3.364;2023-04-23T12:09:19;5.78;;;1.95;;
79526;SDS011;68974;47.754;-3.364;2023-04-23T12:11:46;5.85;;;1.70;;
79526;SDS011;68974;47.754;-3.364;2023-04-23T12:14:14;3.45;;;1.48;;
79526;SDS011;68974;47.754;-3.364;2023-04-23T12:16:41;4.25;;;2.60;;
79526;SDS011;68974;47.754;-3.364;2023-04-23T12:19:17;3.60;;;1.80;;
79526;SDS011;68974;47.754;-3.364;2023-04-23T12:21:55;4.07;;;2.05;;
79526;SDS011;68974;47.754;-3.364;2023-04-23T12:24:21;3.22;;;1.63;;
79526;SDS011;68974;47.754;-3.364;2023-04-23T12:26:48;2.65;;;1.60;;
79526;SDS011;68974;47.754;-3.364;2023-04-23T12:29:18;6.13;;;1.95;;
79526;SDS011;68974;47.754;-3.364;2023-04-23T12:31:45;4.10;;;1.67;;
79526;SDS011;68974;47.754;-3.364;2023-04-23T12:34:11;5.53;;;1.80;;
79526;SDS011;68974;47.754;-3.364;2023-04-23T12:36:38;2.20;;;1.65;;
79526;SDS011;68974;47.754;-3.364;2023-04-23T12:41:45;5.63;;;1.63;;
79526;SDS011;68974;47.754;-3.364;2023-04-23T12:44:11;2.40;;;1.48;;
79526;SDS011;68974;47.754;-3.364;2023-04-23T12:46:36;4.63;;;1.75;;
79526;SDS011;68974;47.754;-3.364;2023-04-23T12:49:01;3.13;;;1.52;;
79526;SDS011;68974;47.754;-3.364;2023-04-23T12:51:27;3.20;;;1.42;;
79526;SDS011;68974;47.754;-3.364;2023-04-23T12:53:52;3.05;;;1.10;;
79526;SDS011;68974;47.754;-3.364;2023-04-23T12:56:18;4.53;;;2.78;;
79526;SDS011;68974;47.754;-3.364;2023-04-23T12:58:44;3.70;;;1.90;;
79526;SDS011;68974;47.754;-3.364;2023-04-23T13:01:09;2.33;;;1.80;;
79526;SDS011;68974;47.754;-3.364;2023-04-23T13:03:36;4.70;;;2.30;;
79526;SDS011;68974;47.754;-3.364;2023-04-23T13:06:02;5.43;;;2.35;;
79526;SDS011;68974;47.754;-3.364;2023-04-23T13:08:27;6.70;;;2.22;;
79526;SDS011;68974;47.754;-3.364;2023-04-23T13:10:52;3.00;;;1.80;;
79526;SDS011;68974;47.754;-3.364;2023-04-23T13:13:18;4.15;;;1.67;;
79526;SDS011;68974;47.754;-3.364;2023-04-23T13:15:43;3.55;;;1.98;;
79526;SDS011;68974;47.754;-3.364;2023-04-23T13:18:09;4.68;;;2.03;;
79526;SDS011;68974;47.754;-3.364;2023-04-23T13:20:34;3.70;;;1.73;;
79526;SDS011;68974;47.754;-3.364;2023-04-23T13:22:59;4.93;;;1.98;;
79526;SDS011;68974;47.754;-3.364;2023-04-23T13:27:52;5.35;;;2.00;;
79526;SDS011;68974;47.754;-3.364;2023-04-23T13:30:18;4.13;;;1.88;;
79526;SDS011;68974;47.754;-3.364;2023-04-23T13:32:43;5.18;;;2.33;;
79526;SDS011;68974;47.754;-3.364;2023-04-23T13:35:08;6.13;;;1.88;;
79526;SDS011;68974;47.754;-3.364;2023-04-23T13:37:34;6.63;;;2.15;;
79526;SDS011;68974;47.754;-3.364;2023-04-23T13:40:00;5.28;;;2.40;;
79526;SDS011;68974;47.754;-3.364;2023-04-23T13:42:25;5.53;;;1.88;;
79526;SDS011;68974;47.754;-3.364;2023-04-23T13:44:51;5.15;;;2.20;;
79526;SDS011;68974;47.754;-3.364;2023-04-23T13:47:16;5.68;;;2.13;;
79526;SDS011;68974;47.754;-3.364;2023-04-23T13:49:42;2.60;;;2.20;;
79526;SDS011;68974;47.754;-3.364;2023-04-23T13:52:07;2.72;;;1.77;;
79526;SDS011;68974;47.754;-3.364;2023-04-23T13:54:33;2.53;;;2.20;;
79526;SDS011;68974;47.754;-3.364;2023-04-23T13:56:59;6.43;;;2.20;;
79526;SDS011;68974;47.754;-3.364;2023-04-23T13:59:25;6.05;;;1.90;;
79526;SDS011;68974;47.754;-3.364;2023-04-23T14:01:50;5.95;;;1.95;;
79526;SDS011;68974;47.754;-3.364;2023-04-23T14:04:16;3.70;;;1.95;;
79526;SDS011;68974;47.754;-3.364;2023-04-23T14:06:42;4.93;;;2.38;;
79526;SDS011;68974;47.754;-3.364;2023-04-23T14:09:08;3.10;;;2.10;;
79526;SDS011;68974;47.754;-3.364;2023-04-23T14:11:34;4.05;;;2.33;;
79526;SDS011;68974;47.754;-3.364;2023-04-23T14:14:00;7.68;;;2.10;;
79526;SDS011;68974;47.754;-3.364;2023-04-23T14:16:25;5.00;;;2.45;;
79526;SDS011;68974;47.754;-3.364;2023-04-23T14:18:51;6.43;;;1.90;;
79526;SDS011;68974;47.754;-3.364;2023-04-23T14:21:17;6.93;;;2.05;;
79526;SDS011;68974;47.754;-3.364;2023-04-23T14:23:50;4.40;;;2.42;;
79526;SDS011;68974;47.754;-3.364;2023-04-23T14:26:28;4.75;;;1.98;;
79526;SDS011;68974;47.754;-3.364;2023-04-23T14:32:00;3.28;;;1.52;;
79526;SDS011;68974;47.754;-3.364;2023-04-23T14:34:26;4.15;;;2.15;;
79526;SDS011;68974;47.754;-3.364;2023-04-23T14:36:51;8.10;;;2.30;;
79526;SDS011;68974;47.754;-3.364;2023-04-23T14:39:17;6.88;;;2.10;;
79526;SDS011;68974;47.754;-3.364;2023-04-23T14:41:43;5.43;;;2.33;;
79526;SDS011;68974;47.754;-3.364;2023-04-23T14:44:09;4.65;;;2.80;;